M I D A S
Marine Information and Data Acquisition System
Tripno 1709 of the Zeeleeuw from 2009-06-15 06:11:10 to 2009-06-15 16:47:28
Back to CruiseResearch ActivitiesStationsMapUnderway DataData graphs

EquipmentUnitsComment
TimeDGPSUTC
LatitudeDGPSDM.mWGS84
LongitudeDGPSDM.mWGS84
HeadingGyrodeg 
SOGDGPSknotsSpeed over ground
COGDGPSdegCourse over ground
DepthEcho soundermeters200 kHz
Missing or incorrect values are displayed as -999
Navigation data collected by the RV Zeeleeuw from 2009-06-15 06:13:37 to 2009-06-15 16:59:58
                                                                                    Next 1000 lines
Time Latitude Longitude Heading SOG COG Depth
2009-06-15 06:13:47 51°13.662 2°55.955 111.4 1.1 289 8.2
2009-06-15 06:13:52 51°13.662 2°55.952 111.2 1.6 293 8.2
2009-06-15 06:13:57 51°13.663 2°55.948 111.2 1.9 291 8.3
2009-06-15 06:14:02 51°13.665 2°55.944 111.6 2.2 294 -999
2009-06-15 06:14:08 51°13.666 2°55.938 111.9 2.4 293 -999
2009-06-15 06:14:14 51°13.668 2°55.932 112.1 2.6 294 -999
2009-06-15 06:14:19 51°13.669 2°55.926 112.1 2.8 292 -999
2009-06-15 06:14:25 51°13.671 2°55.919 111.9 2.9 291 -999
2009-06-15 06:14:31 51°13.673 2°55.911 111.1 3 290 -999
2009-06-15 06:14:36 51°13.674 2°55.904 110.7 3.1 290 -999
2009-06-15 06:14:41 51°13.676 2°55.898 110.5 3.2 288 -999
2009-06-15 06:14:46 51°13.677 2°55.891 110.5 3.3 288 -999
2009-06-15 06:14:51 51°13.679 2°55.884 110.8 3.4 287 -999
2009-06-15 06:14:56 51°13.68 2°55.876 111.1 3.4 287 -999
2009-06-15 06:15:01 51°13.681 2°55.869 111.6 3.4 287 -999
2009-06-15 06:15:05 51°13.683 2°55.863 111.9 3.6 286 -999
2009-06-15 06:15:11 51°13.684 2°55.854 111.9 3.7 287 -999
2009-06-15 06:15:16 51°13.686 2°55.846 112.2 3.7 287 -999
2009-06-15 06:15:21 51°13.687 2°55.838 112.7 3.5 289 -999
2009-06-15 06:15:25 51°13.689 2°55.833 114.2 3.4 289 -999
2009-06-15 06:15:31 51°13.691 2°55.824 116 3.3 291 -999
2009-06-15 06:15:36 51°13.692 2°55.818 117.9 3.3 292 -999
2009-06-15 06:15:41 51°13.694 2°55.811 119.8 3.2 295 10.7
2009-06-15 06:15:45 51°13.696 2°55.806 121.7 3.3 297 11.3
2009-06-15 06:15:50 51°13.698 2°55.799 123.5 3.4 299 11.9
2009-06-15 06:15:55 51°13.701 2°55.793 125.6 3.6 303 12.6
2009-06-15 06:16:01 51°13.704 2°55.785 128.1 3.7 304 -999
2009-06-15 06:16:06 51°13.707 2°55.778 130.2 3.8 306 -999
2009-06-15 06:16:10 51°13.71 2°55.772 131.5 3.9 306 -999
2009-06-15 06:16:16 51°13.714 2°55.764 132.2 4 308 -999
2009-06-15 06:16:21 51°13.718 2°55.757 133.2 4.1 307 -999
2009-06-15 06:16:26 51°13.721 2°55.75 134.2 4.2 310 -999
2009-06-15 06:16:30 51°13.724 2°55.744 135.5 4.2 309 -999
2009-06-15 06:16:36 51°13.729 2°55.736 136.8 4.2 312 -999
2009-06-15 06:16:41 51°13.733 2°55.728 138.9 4.3 313 -999
2009-06-15 06:16:46 51°13.737 2°55.722 141.6 4.4 317 -999
2009-06-15 06:16:51 51°13.742 2°55.715 144.1 4.3 318 -999
2009-06-15 06:16:56 51°13.746 2°55.709 146.3 4.3 321 -999
2009-06-15 06:17:01 51°13.751 2°55.704 148.6 4.1 324 -999
2009-06-15 06:17:06 51°13.755 2°55.699 151.4 3.8 324 -999
2009-06-15 06:17:11 51°13.759 2°55.696 153.2 3.1 330 -999
2009-06-15 06:17:16 51°13.762 2°55.692 156.2 2.7 328 -999
2009-06-15 06:17:21 51°13.765 2°55.69 159.3 2.1 330 12.3
2009-06-15 06:17:25 51°13.766 2°55.688 161 1.9 325 12.3
2009-06-15 06:17:30 51°13.769 2°55.686 160.8 2.1 333 12.3
2009-06-15 06:17:35 51°13.772 2°55.684 160.3 2.3 329 12.3
2009-06-15 06:17:40 51°13.775 2°55.681 160.3 2.6 334 12.3
2009-06-15 06:17:45 51°13.778 2°55.679 161.1 2.8 335 12.3
2009-06-15 06:17:50 51°13.782 2°55.676 162.5 2.8 338 -999
2009-06-15 06:17:56 51°13.786 2°55.674 164.2 2.6 337 -999
2009-06-15 06:18:01 51°13.789 2°55.672 166.2 2.2 342 -999
2009-06-15 06:18:05 51°13.791 2°55.671 168 1.5 333 -999
2009-06-15 06:18:10 51°13.792 2°55.67 168.2 1.2 340 -999
2009-06-15 06:18:16 51°13.794 2°55.669 165.8 1.2 335 -999
2009-06-15 06:18:21 51°13.796 2°55.667 164.7 1.3 337 -999
2009-06-15 06:18:26 51°13.797 2°55.666 164.1 1.4 336 -999
2009-06-15 06:18:30 51°13.799 2°55.665 164.1 1.6 338 -999
2009-06-15 06:18:36 51°13.802 2°55.663 164.5 1.9 339 -999
2009-06-15 06:18:41 51°13.805 2°55.662 164.9 2.1 340 12.6
2009-06-15 06:18:45 51°13.807 2°55.661 165.6 2.4 342 12.6
2009-06-15 06:18:50 51°13.811 2°55.659 166.1 2.6 342 12.6
2009-06-15 06:18:55 51°13.815 2°55.657 166.7 2.9 344 -999
2009-06-15 06:19:01 51°13.82 2°55.655 167.7 3.3 345 -999
2009-06-15 06:19:06 51°13.825 2°55.653 168.6 3.5 347 -999
2009-06-15 06:19:11 51°13.829 2°55.651 169.2 3.6 346 -999
2009-06-15 06:19:16 51°13.834 2°55.65 169.6 3.7 348 -999
2009-06-15 06:19:21 51°13.84 2°55.648 170 3.8 348 -999
2009-06-15 06:19:26 51°13.845 2°55.646 170.4 3.9 349 -999
2009-06-15 06:19:31 51°13.851 2°55.644 170.7 4.1 349 -999
2009-06-15 06:19:36 51°13.856 2°55.643 170.9 4.1 351 -999
2009-06-15 06:19:41 51°13.862 2°55.641 171.9 4.1 351 -999
2009-06-15 06:19:45 51°13.866 2°55.641 173.5 4.1 353 -999
2009-06-15 06:19:51 51°13.873 2°55.639 175.1 4 353 -999
2009-06-15 06:19:56 51°13.878 2°55.639 177 3.9 355 -999
2009-06-15 06:20:01 51°13.884 2°55.638 178.6 3.7 356 -999
2009-06-15 06:20:05 51°13.887 2°55.638 180.8 3.7 358 -999
2009-06-15 06:20:10 51°13.893 2°55.638 182.3 3.6 358 -999
2009-06-15 06:20:16 51°13.898 2°55.638 184.4 3.5 1 -999
2009-06-15 06:20:21 51°13.903 2°55.638 186.6 3.4 3 -999
2009-06-15 06:20:26 51°13.908 2°55.638 189 3.3 5 -999
2009-06-15 06:20:30 51°13.911 2°55.639 191.4 3.2 6 -999
2009-06-15 06:20:36 51°13.916 2°55.64 193.8 3.1 9 -999
2009-06-15 06:20:41 51°13.92 2°55.641 196.5 3 9 -999
2009-06-15 06:20:46 51°13.924 2°55.643 198.2 2.9 11 -999
2009-06-15 06:20:50 51°13.927 2°55.644 200.2 2.7 12 -999
2009-06-15 06:20:56 51°13.932 2°55.645 201.8 2.5 14 -999
2009-06-15 06:21:01 51°13.935 2°55.647 203.3 2.3 14 -999
2009-06-15 06:21:06 51°13.937 2°55.647 205.3 1.9 14 -999
2009-06-15 06:21:10 51°13.939 2°55.648 207 1.5 12 12.3
2009-06-15 06:21:15 51°13.941 2°55.648 209.1 1.1 8 12.7
2009-06-15 06:21:20 51°13.942 2°55.649 211.4 0.7 5 12.9
2009-06-15 06:21:25 51°13.943 2°55.649 214.8 0.6 356 13
2009-06-15 06:21:30 51°13.943 2°55.648 218.9 0.5 350 13
2009-06-15 06:21:34 51°13.944 2°55.648 223 0.4 335 12.9
2009-06-15 06:21:39 51°13.944 2°55.648 226.9 0.4 314 13
2009-06-15 06:21:44 51°13.944 2°55.647 230.8 0.4 296 12.9
2009-06-15 06:21:49 51°13.944 2°55.646 234.6 0.6 278 12.9
2009-06-15 06:21:54 51°13.944 2°55.644 238.6 0.7 270 12.9
2009-06-15 06:21:59 51°13.944 2°55.642 243 0.9 271 12.9
2009-06-15 06:22:03 51°13.944 2°55.64 247.5 1.1 268 12.9
2009-06-15 06:22:09 51°13.944 2°55.637 252.2 1.3 272 12.9
2009-06-15 06:22:13 51°13.944 2°55.634 257 1.5 271 12.7
2009-06-15 06:22:18 51°13.944 2°55.631 262.2 1.7 278 12.8
2009-06-15 06:22:23 51°13.945 2°55.626 267.6 1.9 279 12.9
2009-06-15 06:22:28 51°13.946 2°55.622 273.2 2.2 284 13
2009-06-15 06:22:33 51°13.947 2°55.617 279.4 2.4 290 13.1
2009-06-15 06:22:38 51°13.948 2°55.611 285.4 2.6 294 12.8
2009-06-15 06:22:42 51°13.95 2°55.607 291.5 2.8 299 13
2009-06-15 06:22:47 51°13.952 2°55.602 297.7 2.9 304 12.8
2009-06-15 06:22:52 51°13.955 2°55.596 304.2 3.1 307 12.8
2009-06-15 06:22:57 51°13.958 2°55.591 310 3.4 313 13
2009-06-15 06:23:02 51°13.961 2°55.585 313.7 3.6 313 12.7
2009-06-15 06:23:07 51°13.965 2°55.579 316.3 3.9 317 12.7
2009-06-15 06:23:12 51°13.969 2°55.573 318.4 4.1 318 12.9
2009-06-15 06:23:17 51°13.974 2°55.567 320.2 4.5 321 12.8
2009-06-15 06:23:22 51°13.979 2°55.56 322.1 5 322 12.8
2009-06-15 06:23:27 51°13.985 2°55.553 324.3 5.5 325 12.8
2009-06-15 06:23:32 51°13.992 2°55.546 326 5.9 326 12.8
2009-06-15 06:23:37 51°13.999 2°55.538 327.7 6.3 327 12.7
2009-06-15 06:23:42 51°14.007 2°55.53 328.2 6.6 326 12.7
2009-06-15 06:23:47 51°14.015 2°55.522 328.3 6.9 327 12.6
2009-06-15 06:23:52 51°14.023 2°55.513 328.5 7.1 326 12.5
2009-06-15 06:23:57 51°14.031 2°55.504 328.5 7.4 327 12.5
2009-06-15 06:24:02 51°14.04 2°55.495 328.8 7.6 328 12.5
2009-06-15 06:24:07 51°14.05 2°55.486 330.3 7.8 329 12.6
2009-06-15 06:24:12 51°14.059 2°55.477 331 8.1 329 12.5
2009-06-15 06:24:17 51°14.069 2°55.468 331.4 8.3 330 12.4
2009-06-15 06:24:22 51°14.079 2°55.459 332.2 8.4 330 12.4
2009-06-15 06:24:27 51°14.09 2°55.449 332.5 8.6 330 12.4
2009-06-15 06:24:32 51°14.1 2°55.439 331.9 8.8 329 12.4
2009-06-15 06:24:37 51°14.111 2°55.429 331.8 8.9 330 12.3
2009-06-15 06:24:42 51°14.122 2°55.419 331.8 9.1 329 12.4
2009-06-15 06:24:47 51°14.133 2°55.408 331.4 9.3 329 12.4
2009-06-15 06:24:52 51°14.144 2°55.397 330.7 9.4 328 12.4
2009-06-15 06:24:57 51°14.155 2°55.386 330.3 9.5 328 12.4
2009-06-15 06:25:02 51°14.166 2°55.375 330.3 9.6 328 12.4
2009-06-15 06:25:07 51°14.177 2°55.363 330.2 9.6 327 12.4
2009-06-15 06:25:12 51°14.188 2°55.351 329.2 9.8 325 12.4
2009-06-15 06:25:17 51°14.199 2°55.338 326.9 9.9 324 12.4
2009-06-15 06:25:22 51°14.211 2°55.325 326.7 9.9 324 12.3
2009-06-15 06:25:27 51°14.222 2°55.312 325.9 10.1 321 12.4
2009-06-15 06:25:32 51°14.232 2°55.297 324.2 10.2 319 12.4
2009-06-15 06:25:37 51°14.243 2°55.282 321.8 10.3 317 12.4
2009-06-15 06:25:42 51°14.253 2°55.266 319 10.4 315 12.5
2009-06-15 06:25:47 51°14.263 2°55.249 317.2 10.5 315 12.3
2009-06-15 06:25:52 51°14.274 2°55.233 316.1 10.6 313 12.4
2009-06-15 06:25:57 51°14.284 2°55.215 314.7 10.7 312 12.2
2009-06-15 06:26:02 51°14.294 2°55.197 314 10.8 312 12.3
2009-06-15 06:26:07 51°14.304 2°55.179 313.9 10.9 313 12.4
2009-06-15 06:26:12 51°14.314 2°55.162 315.1 11 315 12.3
2009-06-15 06:26:17 51°14.326 2°55.146 317.8 11 317 12.3
2009-06-15 06:26:22 51°14.337 2°55.128 318.7 11.2 315 12.5
2009-06-15 06:26:27 51°14.348 2°55.111 318.2 11.3 317 12.5
2009-06-15 06:26:32 51°14.36 2°55.094 319.8 11.3 319 12.5
2009-06-15 06:26:37 51°14.371 2°55.077 320.7 11.4 318 12.6
2009-06-15 06:26:42 51°14.383 2°55.061 320.7 11.5 319 12.4
2009-06-15 06:26:47 51°14.396 2°55.045 322.1 11.6 322 12.4
2009-06-15 06:26:52 51°14.409 2°55.03 324.4 11.6 323 12.3
2009-06-15 06:26:57 51°14.422 2°55.015 325.5 11.7 325 12.1
2009-06-15 06:27:02 51°14.436 2°54.999 325.7 11.7 324 12
2009-06-15 06:27:07 51°14.448 2°54.984 324.7 11.8 323 12.2
2009-06-15 06:27:12 51°14.462 2°54.968 324.2 11.9 323 12.4
2009-06-15 06:27:17 51°14.475 2°54.952 323.6 11.9 323 12.4
2009-06-15 06:27:22 51°14.488 2°54.936 323.2 12 323 12.3
2009-06-15 06:27:27 51°14.501 2°54.92 322.6 12 323 12.1
2009-06-15 06:27:32 51°14.514 2°54.904 322.8 12 325 11.9
2009-06-15 06:27:37 51°14.528 2°54.889 323 12 325 12
2009-06-15 06:27:42 51°14.542 2°54.874 323.1 12 326 11.8
2009-06-15 06:27:47 51°14.556 2°54.86 323.7 12 326 11.8
2009-06-15 06:27:52 51°14.569 2°54.844 323.4 11.9 325 11.9
2009-06-15 06:27:57 51°14.583 2°54.829 322.5 11.9 325 11.8
2009-06-15 06:28:02 51°14.596 2°54.814 322.3 11.8 324 11.7
2009-06-15 06:28:07 51°14.609 2°54.798 322 11.9 324 11.7
2009-06-15 06:28:12 51°14.622 2°54.783 321.7 11.9 324 11.6
2009-06-15 06:28:17 51°14.636 2°54.768 322.1 11.9 325 11.6
2009-06-15 06:28:22 51°14.649 2°54.753 322.7 11.9 325 11.6
2009-06-15 06:28:27 51°14.663 2°54.737 322.6 11.9 325 11.6
2009-06-15 06:28:32 51°14.676 2°54.722 322.6 11.9 325 11.7
2009-06-15 06:28:37 51°14.69 2°54.707 322.9 11.9 325 11.7
2009-06-15 06:28:42 51°14.703 2°54.692 323 11.9 325 11.6
2009-06-15 06:28:47 51°14.717 2°54.677 322.7 11.9 324 11.8
2009-06-15 06:28:52 51°14.73 2°54.661 322.7 11.8 324 11.7
2009-06-15 06:28:57 51°14.744 2°54.646 322.7 11.9 324 11.7
2009-06-15 06:29:02 51°14.757 2°54.63 322.5 11.9 324 11.7
2009-06-15 06:29:07 51°14.77 2°54.615 322.6 11.9 324 11.6
2009-06-15 06:29:12 51°14.783 2°54.599 322.8 11.8 324 11.6
2009-06-15 06:29:17 51°14.796 2°54.584 322.8 11.8 324 11.5
2009-06-15 06:29:22 51°14.81 2°54.568 323.3 11.9 325 11.5
2009-06-15 06:29:27 51°14.823 2°54.553 324.2 11.9 326 11.5
2009-06-15 06:29:32 51°14.837 2°54.539 324.8 12 326 11.5
2009-06-15 06:29:37 51°14.851 2°54.524 325.5 12.1 327 11.5
2009-06-15 06:29:42 51°14.865 2°54.51 325.8 12.1 327 11.4
2009-06-15 06:29:47 51°14.879 2°54.495 325.6 12.1 326 11.2
2009-06-15 06:29:52 51°14.893 2°54.48 325.1 12.1 326 11.2
2009-06-15 06:29:57 51°14.907 2°54.465 324.5 12.1 326 11.4
2009-06-15 06:30:02 51°14.921 2°54.45 324.5 12 326 11.2
2009-06-15 06:30:07 51°14.935 2°54.435 324.3 12.1 326 10.9
2009-06-15 06:30:12 51°14.949 2°54.42 324.1 12 326 10.6
2009-06-15 06:30:17 51°14.963 2°54.405 323.8 12 326 10.7
2009-06-15 06:30:22 51°14.976 2°54.39 323.8 12 326 11.1
2009-06-15 06:30:27 51°14.99 2°54.375 323.2 12 323 11
2009-06-15 06:30:32 51°15.003 2°54.359 322.5 12 323 11.2
2009-06-15 06:30:37 51°15.016 2°54.344 323.1 11.9 324 11.4
2009-06-15 06:30:41 51°15.027 2°54.331 322.9 11.8 321 11.2
2009-06-15 06:30:47 51°15.041 2°54.31 320.2 11.7 318 11
2009-06-15 06:30:52 51°15.053 2°54.291 317.1 11.7 314 11.3
2009-06-15 06:30:57 51°15.063 2°54.272 313.9 11.6 312 11.1
2009-06-15 06:31:02 51°15.073 2°54.252 311 11.6 309 10.4
2009-06-15 06:31:06 51°15.081 2°54.236 307.9 11.5 306 10.4
2009-06-15 06:31:12 51°15.092 2°54.211 306.4 11.5 305 10.4
2009-06-15 06:31:17 51°15.099 2°54.189 302.7 11.5 298 10.4
2009-06-15 06:31:22 51°15.107 2°54.166 298.9 11.5 298 10.5
2009-06-15 06:31:26 51°15.112 2°54.148 296.7 11.4 294 10.6
2009-06-15 06:31:32 51°15.119 2°54.12 293.4 11.5 291 10.7
2009-06-15 06:31:37 51°15.124 2°54.095 289.6 11.5 288 10.9
2009-06-15 06:31:42 51°15.128 2°54.071 287.2 11.5 286 10.9
2009-06-15 06:31:47 51°15.132 2°54.046 284.4 11.5 283 11.1
2009-06-15 06:31:51 51°15.135 2°54.027 282.6 11.5 283 11.1
2009-06-15 06:31:57 51°15.138 2°53.997 280.5 11.4 278 11.3
2009-06-15 06:32:02 51°15.14 2°53.972 278.1 11.4 278 11.2
2009-06-15 06:32:07 51°15.141 2°53.946 276.3 11.4 276 11.3
2009-06-15 06:32:12 51°15.143 2°53.921 274.6 11.4 275 11.1
2009-06-15 06:32:17 51°15.144 2°53.896 273.5 11.5 274 11.3
2009-06-15 06:32:22 51°15.144 2°53.87 272.3 11.5 272 11.4
2009-06-15 06:32:27 51°15.145 2°53.845 271.5 11.5 273 11.4
2009-06-15 06:32:32 51°15.145 2°53.82 270.8 11.5 270 11.5
2009-06-15 06:32:37 51°15.146 2°53.794 270.8 11.5 274 11.6
2009-06-15 06:32:42 51°15.147 2°53.769 272.6 11.6 273 11.7
2009-06-15 06:32:46 51°15.148 2°53.748 272.6 11.5 275 11.6
2009-06-15 06:32:52 51°15.15 2°53.718 273.6 11.6 276 11.7
2009-06-15 06:32:57 51°15.151 2°53.692 274.1 11.6 275 11.7
2009-06-15 06:33:02 51°15.155 2°53.667 275.9 11.6 280 11.7
2009-06-15 06:33:07 51°15.157 2°53.642 277.5 11.6 278 11.7
2009-06-15 06:33:12 51°15.16 2°53.616 278.1 11.6 280 11.7
2009-06-15 06:33:17 51°15.162 2°53.591 278.8 11.6 280 11.6
2009-06-15 06:33:22 51°15.165 2°53.566 279 11.6 281 11.7
2009-06-15 06:33:27 51°15.168 2°53.541 279.4 11.6 281 11.6
2009-06-15 06:33:32 51°15.171 2°53.515 279.5 11.6 281 11.5
2009-06-15 06:33:37 51°15.174 2°53.49 279.8 11.6 281 11.7
2009-06-15 06:33:42 51°15.178 2°53.465 280.1 11.5 281 11.8
2009-06-15 06:33:46 51°15.18 2°53.445 279.8 11.5 281 12
2009-06-15 06:33:52 51°15.184 2°53.415 279.8 11.5 282 12
2009-06-15 06:33:57 51°15.187 2°53.39 280.3 11.5 282 12
2009-06-15 06:34:02 51°15.191 2°53.366 280.5 11.5 282 11.9
2009-06-15 06:34:07 51°15.194 2°53.341 280.7 11.5 282 11.9
2009-06-15 06:34:12 51°15.197 2°53.316 281 11.5 283 12
2009-06-15 06:34:17 51°15.201 2°53.291 281.3 11.5 282 12.1
2009-06-15 06:34:22 51°15.204 2°53.266 281.2 11.5 283 12.3
2009-06-15 06:34:27 51°15.208 2°53.242 281.7 11.5 284 12.2
2009-06-15 06:34:32 51°15.212 2°53.217 282.4 11.5 284 12.1
2009-06-15 06:34:37 51°15.216 2°53.192 283 11.5 285 12.2
2009-06-15 06:34:42 51°15.22 2°53.168 283.2 11.5 284 12.3
2009-06-15 06:34:47 51°15.225 2°53.143 283.8 11.5 286 12.1
2009-06-15 06:34:52 51°15.229 2°53.119 284.4 11.5 285 12.5
2009-06-15 06:34:57 51°15.233 2°53.094 284.4 11.5 285 12.4
2009-06-15 06:35:02 51°15.237 2°53.069 283.7 11.5 284 12.3
2009-06-15 06:35:07 51°15.241 2°53.045 282.9 11.5 283 12.3
2009-06-15 06:35:12 51°15.245 2°53.02 282.5 11.5 284 12.3
2009-06-15 06:35:17 51°15.248 2°52.995 282.4 11.5 284 12.6
2009-06-15 06:35:22 51°15.252 2°52.971 282.4 11.5 283 12.5
2009-06-15 06:35:26 51°15.255 2°52.951 282.1 11.5 284 12.5
2009-06-15 06:35:32 51°15.259 2°52.921 282.3 11.5 284 12.5
2009-06-15 06:35:37 51°15.263 2°52.897 282.4 11.4 283 12.6
2009-06-15 06:35:42 51°15.267 2°52.872 282.3 11.5 283 12.7
2009-06-15 06:35:47 51°15.27 2°52.847 282 11.5 283 12.6
2009-06-15 06:35:52 51°15.274 2°52.823 282 11.4 283 12.6
2009-06-15 06:35:57 51°15.278 2°52.798 282.9 11.4 284 12.8
2009-06-15 06:36:02 51°15.281 2°52.773 282.7 11.4 283 12.7
2009-06-15 06:36:07 51°15.285 2°52.749 282.7 11.4 284 12.8
2009-06-15 06:36:12 51°15.289 2°52.724 283.1 11.5 284 12.8
2009-06-15 06:36:17 51°15.293 2°52.7 283 11.5 284 12.7
2009-06-15 06:36:22 51°15.297 2°52.675 283 11.5 284 12.7
2009-06-15 06:36:26 51°15.3 2°52.655 283.1 11.5 284 12.9
2009-06-15 06:36:32 51°15.304 2°52.626 282.8 11.5 283 12.9
2009-06-15 06:36:37 51°15.309 2°52.601 282.7 11.5 284 12.8
2009-06-15 06:36:42 51°15.312 2°52.576 282.7 11.5 284 12.7
2009-06-15 06:36:47 51°15.316 2°52.551 282.8 11.5 284 12.9
2009-06-15 06:36:51 51°15.319 2°52.532 282.9 11.5 284 13
2009-06-15 06:36:57 51°15.324 2°52.502 283.2 11.5 285 13.1
2009-06-15 06:37:02 51°15.328 2°52.478 283.5 11.5 285 13
2009-06-15 06:37:07 51°15.332 2°52.453 283.4 11.5 284 13.2
2009-06-15 06:37:12 51°15.336 2°52.429 284.2 11.5 286 13.1
2009-06-15 06:37:17 51°15.341 2°52.404 284.6 11.5 285 13.3
2009-06-15 06:37:22 51°15.345 2°52.38 284.2 11.5 284 13.3
2009-06-15 06:37:27 51°15.349 2°52.355 283.8 11.5 285 13.3
2009-06-15 06:37:32 51°15.353 2°52.331 283.8 11.4 285 13.3
2009-06-15 06:37:37 51°15.357 2°52.306 283.4 11.5 284 13.3
2009-06-15 06:37:42 51°15.361 2°52.282 283.3 11.4 285 13.3
2009-06-15 06:37:47 51°15.365 2°52.257 283.5 11.4 285 13.5
2009-06-15 06:37:52 51°15.369 2°52.233 283.6 11.4 285 13.3
2009-06-15 06:37:57 51°15.373 2°52.208 283.5 11.4 285 13.4
2009-06-15 06:38:02 51°15.377 2°52.184 283.3 11.4 284 13.5
2009-06-15 06:38:07 51°15.381 2°52.159 283.3 11.4 285 13.5
2009-06-15 06:38:12 51°15.385 2°52.135 283.2 11.4 285 13.4
2009-06-15 06:38:17 51°15.389 2°52.11 283.4 11.4 285 13.5
2009-06-15 06:38:22 51°15.393 2°52.086 283.5 11.4 284 13.6
2009-06-15 06:38:27 51°15.397 2°52.062 283.4 11.4 285 13.7
2009-06-15 06:38:32 51°15.402 2°52.038 284.6 11.4 287 13.7
2009-06-15 06:38:37 51°15.406 2°52.013 284.9 11.4 286 13.7
2009-06-15 06:38:42 51°15.411 2°51.989 285.5 11.4 287 13.7
2009-06-15 06:38:47 51°15.415 2°51.965 286.1 11.4 287 13.8
2009-06-15 06:38:51 51°15.419 2°51.946 286 11.4 287 13.7
2009-06-15 06:38:57 51°15.424 2°51.917 285.3 11.4 286 13.7
2009-06-15 06:39:02 51°15.428 2°51.892 285.1 11.4 286 13.7
2009-06-15 06:39:07 51°15.433 2°51.868 285 11.5 286 13.9
2009-06-15 06:39:12 51°15.437 2°51.844 285.2 11.5 287 13.9
2009-06-15 06:39:17 51°15.442 2°51.819 285.6 11.5 286 14
2009-06-15 06:39:22 51°15.446 2°51.795 284.8 11.5 284 14
2009-06-15 06:39:27 51°15.45 2°51.77 284.3 11.5 285 14.1
2009-06-15 06:39:32 51°15.454 2°51.746 284.1 11.5 284 14.2
2009-06-15 06:39:37 51°15.458 2°51.721 284.7 11.5 286 14
2009-06-15 06:39:42 51°15.462 2°51.696 285 11.5 285 14.2
2009-06-15 06:39:47 51°15.467 2°51.672 285.5 11.5 286 14.2
2009-06-15 06:39:52 51°15.471 2°51.648 285.9 11.5 285 14.1
2009-06-15 06:39:57 51°15.476 2°51.623 285.1 11.5 286 14.1
2009-06-15 06:40:02 51°15.48 2°51.598 284.8 11.5 286 14.2
2009-06-15 06:40:07 51°15.484 2°51.574 285.3 11.5 286 14.3
2009-06-15 06:40:12 51°15.489 2°51.549 285.3 11.5 286 14.3
2009-06-15 06:40:17 51°15.493 2°51.525 285.6 11.5 287 14.3
2009-06-15 06:40:22 51°15.498 2°51.501 285.8 11.5 286 14.3
2009-06-15 06:40:27 51°15.502 2°51.476 285.4 11.5 286 14.5
2009-06-15 06:40:32 51°15.506 2°51.451 285.1 11.5 286 14.4
2009-06-15 06:40:37 51°15.511 2°51.427 285.8 11.5 287 14.3
2009-06-15 06:40:42 51°15.515 2°51.402 285.7 11.6 285 14.4
2009-06-15 06:40:47 51°15.519 2°51.378 284.5 11.5 284 14.5
2009-06-15 06:40:52 51°15.524 2°51.353 284.4 11.5 286 14.5
2009-06-15 06:40:57 51°15.528 2°51.329 284.6 11.6 285 14.6
2009-06-15 06:41:02 51°15.532 2°51.304 284.7 11.6 285 14.7
2009-06-15 06:41:07 51°15.536 2°51.279 284.8 11.6 285 14.6
2009-06-15 06:41:12 51°15.54 2°51.255 284.6 11.5 284 14.5
2009-06-15 06:41:17 51°15.544 2°51.23 283.9 11.5 284 14.7
2009-06-15 06:41:22 51°15.548 2°51.205 283.8 11.5 285 14.8
2009-06-15 06:41:27 51°15.552 2°51.18 283.6 11.5 283 14.6
2009-06-15 06:41:32 51°15.555 2°51.156 283.1 11.5 283 14.6
2009-06-15 06:41:37 51°15.559 2°51.131 283.1 11.5 283 14.5
2009-06-15 06:41:42 51°15.562 2°51.106 282.4 11.5 283 14.6
2009-06-15 06:41:47 51°15.566 2°51.081 282.7 11.5 284 14.7
2009-06-15 06:41:51 51°15.569 2°51.062 283 11.5 283 14.8
2009-06-15 06:41:57 51°15.574 2°51.032 283 11.5 283 14.8
2009-06-15 06:42:02 51°15.577 2°51.007 282.9 11.5 283 14.9
2009-06-15 06:42:07 51°15.581 2°50.982 282.9 11.5 283 14.7
2009-06-15 06:42:12 51°15.585 2°50.958 283.4 11.5 284 14.7
2009-06-15 06:42:17 51°15.589 2°50.933 283.3 11.6 284 14.7
2009-06-15 06:42:22 51°15.593 2°50.908 283.8 11.5 285 14.7
2009-06-15 06:42:27 51°15.597 2°50.884 284.9 11.6 286 14.8
2009-06-15 06:42:32 51°15.602 2°50.859 284.9 11.6 285 14.7
2009-06-15 06:42:37 51°15.606 2°50.834 285.3 11.6 287 14.6
2009-06-15 06:42:42 51°15.611 2°50.81 285.9 11.6 286 14.6
2009-06-15 06:42:46 51°15.614 2°50.79 285.1 11.6 285 14.7
2009-06-15 06:42:52 51°15.62 2°50.76 284.7 11.6 286 14.7
2009-06-15 06:42:57 51°15.624 2°50.736 284.6 11.5 284 14.7
2009-06-15 06:43:02 51°15.628 2°50.711 284 11.5 285 14.8
2009-06-15 06:43:06 51°15.631 2°50.692 283.8 11.5 285 14.7
2009-06-15 06:43:12 51°15.636 2°50.662 283.5 11.5 285 14.7
2009-06-15 06:43:17 51°15.64 2°50.637 283.1 11.5 285 14.6
2009-06-15 06:43:22 51°15.644 2°50.613 283.2 11.5 285 14.6
2009-06-15 06:43:27 51°15.648 2°50.589 283.6 11.5 285 14.7
2009-06-15 06:43:32 51°15.652 2°50.564 283.6 11.5 285 14.7
2009-06-15 06:43:37 51°15.657 2°50.54 283.7 11.4 285 14.7
2009-06-15 06:43:42 51°15.661 2°50.515 283.6 11.5 285 14.7
2009-06-15 06:43:46 51°15.664 2°50.496 283.2 11.4 285 14.7
2009-06-15 06:43:52 51°15.669 2°50.466 283.2 11.4 285 14.7
2009-06-15 06:43:57 51°15.673 2°50.442 283.1 11.4 285 14.8
2009-06-15 06:44:02 51°15.677 2°50.418 283.2 11.4 285 14.9
2009-06-15 06:44:07 51°15.681 2°50.394 283.8 11.4 286 14.7
2009-06-15 06:44:12 51°15.685 2°50.369 283.8 11.4 285 14.7
2009-06-15 06:44:17 51°15.69 2°50.345 283.8 11.4 286 14.8
2009-06-15 06:44:22 51°15.694 2°50.321 283.8 11.4 286 14.6
2009-06-15 06:44:27 51°15.698 2°50.297 284.4 11.4 286 14.9
2009-06-15 06:44:32 51°15.703 2°50.272 285.3 11.4 288 14.9
2009-06-15 06:44:37 51°15.708 2°50.248 285.6 11.4 287 14.7
2009-06-15 06:44:42 51°15.713 2°50.224 286.1 11.5 289 14.8
2009-06-15 06:44:47 51°15.718 2°50.2 286.3 11.5 287 14.7
2009-06-15 06:44:52 51°15.723 2°50.176 286.4 11.5 289 14.7
2009-06-15 06:44:57 51°15.727 2°50.152 286.6 11.5 287 14.8
2009-06-15 06:45:02 51°15.732 2°50.128 286.5 11.5 288 14.6
2009-06-15 06:45:07 51°15.737 2°50.103 286.5 11.5 286 14.4
2009-06-15 06:45:12 51°15.741 2°50.079 285.9 11.5 285 14.6
2009-06-15 06:45:17 51°15.746 2°50.054 285.5 11.6 287 14.6
2009-06-15 06:45:22 51°15.75 2°50.03 286 11.5 285 14.5
2009-06-15 06:45:26 51°15.753 2°50.01 285.7 11.5 286 14.3
2009-06-15 06:45:32 51°15.759 2°49.981 285.9 11.5 286 14.1
2009-06-15 06:45:37 51°15.763 2°49.956 285.8 11.6 286 14.1
2009-06-15 06:45:42 51°15.768 2°49.932 285.4 11.6 286 13.8
2009-06-15 06:45:47 51°15.772 2°49.907 285.5 11.6 287 13.7
2009-06-15 06:45:52 51°15.776 2°49.882 285.6 11.6 285 13.7
2009-06-15 06:45:57 51°15.781 2°49.858 285.3 11.6 286 13.5
2009-06-15 06:46:02 51°15.785 2°49.833 285.3 11.6 286 13.3
2009-06-15 06:46:07 51°15.79 2°49.809 285.4 11.6 286 13.2
2009-06-15 06:46:12 51°15.794 2°49.784 285.5 11.5 286 13.1
2009-06-15 06:46:17 51°15.798 2°49.759 285 11.6 285 13
2009-06-15 06:46:22 51°15.802 2°49.735 284.8 11.5 286 13
2009-06-15 06:46:27 51°15.807 2°49.71 284.9 11.5 285 12.9
2009-06-15 06:46:32 51°15.81 2°49.686 284.4 11.5 285 12.5
2009-06-15 06:46:37 51°15.814 2°49.661 283.7 11.5 285 12.4
2009-06-15 06:46:42 51°15.818 2°49.636 283.8 11.5 284 12.5
2009-06-15 06:46:46 51°15.821 2°49.617 283.3 11.4 284 12.4
2009-06-15 06:46:52 51°15.826 2°49.587 283.2 11.4 283 12.5
2009-06-15 06:46:57 51°15.829 2°49.563 282.7 11.4 283 12.4
2009-06-15 06:47:02 51°15.833 2°49.538 282.4 11.4 283 12.4
2009-06-15 06:47:07 51°15.836 2°49.513 282.8 11.4 283 12.3
2009-06-15 06:47:12 51°15.84 2°49.489 282.7 11.4 283 12.4
2009-06-15 06:47:17 51°15.843 2°49.464 282.5 11.5 282 12.4
2009-06-15 06:47:22 51°15.847 2°49.439 282.4 11.5 283 12.3
2009-06-15 06:47:26 51°15.85 2°49.419 282.6 11.5 283 12.3
2009-06-15 06:47:32 51°15.854 2°49.39 283.2 11.5 284 12.3
2009-06-15 06:47:37 51°15.858 2°49.365 283.3 11.4 283 12.5
2009-06-15 06:47:42 51°15.862 2°49.341 283 11.5 283 12.3
2009-06-15 06:47:47 51°15.865 2°49.316 282.8 11.5 283 12.4
2009-06-15 06:47:52 51°15.869 2°49.291 282.9 11.5 283 12.5
2009-06-15 06:47:57 51°15.872 2°49.266 283 11.5 283 12.5
2009-06-15 06:48:02 51°15.875 2°49.242 281.8 11.4 280 12.5
2009-06-15 06:48:07 51°15.877 2°49.217 279.5 11.4 278 12.5
2009-06-15 06:48:11 51°15.879 2°49.197 277.7 11.4 277 12.6
2009-06-15 06:48:17 51°15.88 2°49.167 276.5 11.4 275 12.7
2009-06-15 06:48:22 51°15.882 2°49.141 275 11.4 275 12.8
2009-06-15 06:48:27 51°15.883 2°49.116 274.5 11.4 274 12.9
2009-06-15 06:48:32 51°15.883 2°49.091 273.5 11.5 272 12.9
2009-06-15 06:48:37 51°15.884 2°49.065 273.2 11.5 273 12.9
2009-06-15 06:48:42 51°15.884 2°49.04 272.5 11.5 271 13.1
2009-06-15 06:48:47 51°15.885 2°49.015 272.1 11.5 273 13.2
2009-06-15 06:48:52 51°15.885 2°48.989 271.8 11.5 271 13.3
2009-06-15 06:48:57 51°15.885 2°48.964 271.5 11.5 271 13.3
2009-06-15 06:49:02 51°15.885 2°48.939 271.3 11.5 270 13.4
2009-06-15 06:49:07 51°15.886 2°48.913 271.1 11.5 271 13.5
2009-06-15 06:49:12 51°15.886 2°48.888 271.1 11.5 271 13.4
2009-06-15 06:49:17 51°15.886 2°48.862 271.2 11.5 269 13.6
2009-06-15 06:49:22 51°15.886 2°48.837 270.4 11.5 270 13.5
2009-06-15 06:49:27 51°15.886 2°48.812 269.5 11.4 269 13.6
2009-06-15 06:49:32 51°15.886 2°48.786 269.6 11.4 271 13.7
2009-06-15 06:49:37 51°15.886 2°48.761 270.1 11.5 270 13.9
2009-06-15 06:49:42 51°15.886 2°48.736 270.7 11.5 271 14
2009-06-15 06:49:46 51°15.886 2°48.716 270.8 11.4 270 13.9
2009-06-15 06:49:52 51°15.887 2°48.685 271 11.5 272 14
2009-06-15 06:49:57 51°15.887 2°48.66 271.4 11.5 271 14.2
2009-06-15 06:50:02 51°15.887 2°48.635 271.3 11.4 271 14.2
2009-06-15 06:50:06 51°15.887 2°48.614 271.1 11.5 271 14.3
2009-06-15 06:50:12 51°15.888 2°48.584 271.4 11.5 272 14.2
2009-06-15 06:50:17 51°15.889 2°48.558 272.3 11.5 272 14.4
2009-06-15 06:50:22 51°15.889 2°48.533 272.4 11.5 272 14.6
2009-06-15 06:50:27 51°15.89 2°48.508 272.3 11.5 272 14.7
2009-06-15 06:50:32 51°15.89 2°48.482 271.7 11.5 270 14.8
2009-06-15 06:50:37 51°15.891 2°48.457 271.4 11.5 272 14.8
2009-06-15 06:50:42 51°15.891 2°48.432 272.1 11.5 272 14.9
2009-06-15 06:50:47 51°15.892 2°48.406 272.5 11.4 272 15
2009-06-15 06:50:52 51°15.892 2°48.381 271.9 11.5 272 15.1
2009-06-15 06:50:57 51°15.893 2°48.356 272.7 11.5 274 15.3
2009-06-15 06:51:02 51°15.894 2°48.33 273.6 11.5 273 15.4
2009-06-15 06:51:07 51°15.896 2°48.305 274.4 11.6 276 15.6
2009-06-15 06:51:12 51°15.897 2°48.279 274.6 11.5 274 15.6
2009-06-15 06:51:17 51°15.898 2°48.254 274.8 11.5 275 15.8
2009-06-15 06:51:22 51°15.9 2°48.228 275.3 11.5 275 15.9
2009-06-15 06:51:27 51°15.901 2°48.203 275.7 11.5 276 16
2009-06-15 06:51:32 51°15.903 2°48.178 275.9 11.6 276 16
2009-06-15 06:51:37 51°15.905 2°48.152 276 11.6 276 16.1
2009-06-15 06:51:42 51°15.906 2°48.127 276 11.6 276 16.2
2009-06-15 06:51:47 51°15.908 2°48.101 276 11.6 276 16.2
2009-06-15 06:51:52 51°15.909 2°48.076 276 11.5 276 16.3
2009-06-15 06:51:57 51°15.911 2°48.05 276 11.5 275 16.3
2009-06-15 06:52:02 51°15.912 2°48.025 274.6 11.5 274 16.4
2009-06-15 06:52:06 51°15.914 2°48.005 274.9 11.5 276 16.5
2009-06-15 06:52:12 51°15.915 2°47.974 275 11.5 274 16.6
2009-06-15 06:52:17 51°15.916 2°47.949 274.4 11.5 274 16.7
2009-06-15 06:52:22 51°15.917 2°47.924 273.7 11.4 273 16.8
2009-06-15 06:52:27 51°15.918 2°47.898 273 11.4 272 16.9
2009-06-15 06:52:32 51°15.919 2°47.873 272.8 11.4 274 16.9
2009-06-15 06:52:37 51°15.919 2°47.848 272.9 11.4 272 17.1
2009-06-15 06:52:42 51°15.92 2°47.823 272.9 11.4 274 17
2009-06-15 06:52:47 51°15.921 2°47.798 273.1 11.4 273 17.3
2009-06-15 06:52:52 51°15.922 2°47.773 273 11.4 274 17.2
2009-06-15 06:52:57 51°15.923 2°47.748 272.9 11.4 273 17.3
2009-06-15 06:53:02 51°15.924 2°47.723 273 11.4 274 17.2
2009-06-15 06:53:07 51°15.925 2°47.697 273.2 11.4 273 17.3
2009-06-15 06:53:12 51°15.926 2°47.672 273.1 11.4 273 17.6
2009-06-15 06:53:17 51°15.927 2°47.647 273.8 11.3 273 17.4
2009-06-15 06:53:22 51°15.928 2°47.622 273.1 11.4 273 17.7
2009-06-15 06:53:27 51°15.929 2°47.597 274.1 11.3 275 17.6
2009-06-15 06:53:32 51°15.93 2°47.572 273.4 11.4 273 17.8
2009-06-15 06:53:37 51°15.931 2°47.547 273.4 11.4 274 17.6
2009-06-15 06:53:42 51°15.932 2°47.522 273.8 11.4 274 17.6
2009-06-15 06:53:47 51°15.934 2°47.497 274.7 11.4 276 17.6
2009-06-15 06:53:52 51°15.934 2°47.471 274.3 11.4 273 17.8
2009-06-15 06:53:57 51°15.936 2°47.446 274.2 11.4 275 17.8
2009-06-15 06:54:02 51°15.937 2°47.421 274.4 11.4 274 17.8
2009-06-15 06:54:07 51°15.938 2°47.396 274.4 11.4 274 18
2009-06-15 06:54:12 51°15.939 2°47.371 273.7 11.4 272 18
2009-06-15 06:54:17 51°15.941 2°47.346 273.8 11.3 274 17.8
2009-06-15 06:54:22 51°15.941 2°47.321 273.5 11.4 272 17.9
2009-06-15 06:54:27 51°15.942 2°47.296 273.5 11.4 275 18
2009-06-15 06:54:32 51°15.943 2°47.27 273.6 11.4 273 18.1
2009-06-15 06:54:37 51°15.945 2°47.245 273.4 11.4 274 18.1
2009-06-15 06:54:42 51°15.945 2°47.22 273.7 11.4 274 18.2
2009-06-15 06:54:47 51°15.947 2°47.195 273.9 11.4 275 18.1
2009-06-15 06:54:52 51°15.948 2°47.17 274.5 11.4 276 18.1
2009-06-15 06:54:57 51°15.949 2°47.145 274.6 11.4 274 18.2
2009-06-15 06:55:02 51°15.95 2°47.12 274.1 11.4 273 18.3
2009-06-15 06:55:07 51°15.951 2°47.094 273.8 11.4 274 18.3
2009-06-15 06:55:12 51°15.953 2°47.069 273.7 11.4 274 18.2
2009-06-15 06:55:17 51°15.954 2°47.044 274.1 11.4 274 18.2
2009-06-15 06:55:22 51°15.955 2°47.019 274.2 11.4 275 18.1
2009-06-15 06:55:27 51°15.958 2°46.994 277.4 11.4 281 18.1
2009-06-15 06:55:32 51°15.96 2°46.969 278.7 11.4 278 18
2009-06-15 06:55:37 51°15.964 2°46.945 280.2 11.5 283 18
2009-06-15 06:55:42 51°15.967 2°46.92 281.2 11.5 280 17.9
2009-06-15 06:55:47 51°15.971 2°46.895 282.5 11.5 286 17.8
2009-06-15 06:55:52 51°15.975 2°46.871 283.9 11.5 283 17.8
2009-06-15 06:55:57 51°15.979 2°46.846 284.1 11.5 286 17.8
2009-06-15 06:56:02 51°15.984 2°46.821 285.3 11.6 286 17.6
2009-06-15 06:56:06 51°15.987 2°46.802 285.3 11.6 287 17.5
2009-06-15 06:56:12 51°15.993 2°46.773 286.1 11.5 289 17.5
2009-06-15 06:56:17 51°15.998 2°46.749 286.6 11.4 287 17.5
2009-06-15 06:56:22 51°16.003 2°46.725 286.3 11.4 289 17.1
2009-06-15 06:56:26 51°16.007 2°46.705 286.2 11.3 287 16.9
2009-06-15 06:56:32 51°16.012 2°46.677 286 11.3 288 16.8
2009-06-15 06:56:37 51°16.017 2°46.653 286 11.3 287 16.5
2009-06-15 06:56:42 51°16.022 2°46.629 285.9 11.3 288 16.4
2009-06-15 06:56:46 51°16.026 2°46.61 286.5 11.3 289 16.2
2009-06-15 06:56:52 51°16.032 2°46.582 287.1 11.3 288 16
2009-06-15 06:56:57 51°16.037 2°46.558 287.3 11.4 291 16
2009-06-15 06:57:02 51°16.043 2°46.534 287.8 11.4 289 15.9
2009-06-15 06:57:06 51°16.047 2°46.515 288 11.4 291 15.6
2009-06-15 06:57:12 51°16.053 2°46.487 288.2 11.4 290 15.4
2009-06-15 06:57:17 51°16.059 2°46.463 288 11.5 291 14
2009-06-15 06:57:22 51°16.066 2°46.44 290.4 11.5 295 13.4
2009-06-15 06:57:26 51°16.071 2°46.422 292.1 11.4 294 13.3
2009-06-15 06:57:32 51°16.079 2°46.395 292.6 11.4 296 13.4
2009-06-15 06:57:37 51°16.086 2°46.372 293.8 11.4 297 13.6
2009-06-15 06:57:42 51°16.094 2°46.35 294.2 11.4 296 13.9
2009-06-15 06:57:47 51°16.101 2°46.327 294 11.4 298 13.9
2009-06-15 06:57:52 51°16.108 2°46.305 294.9 11.4 297 13.9
2009-06-15 06:57:57 51°16.115 2°46.282 294.2 11.4 297 13.7
2009-06-15 06:58:02 51°16.123 2°46.26 294.6 11.4 297 13.6
2009-06-15 06:58:07 51°16.13 2°46.237 294.7 11.5 297 13.6
2009-06-15 06:58:12 51°16.138 2°46.215 294.8 11.5 298 13.4
2009-06-15 06:58:17 51°16.145 2°46.192 294.9 11.5 298 13.2
2009-06-15 06:58:22 51°16.153 2°46.17 295.4 11.5 300 13.1
2009-06-15 06:58:27 51°16.16 2°46.148 295.7 11.5 299 12.8
2009-06-15 06:58:32 51°16.169 2°46.125 296.7 11.6 301 12.7
2009-06-15 06:58:37 51°16.176 2°46.103 296.5 11.5 298 12.5
2009-06-15 06:58:42 51°16.184 2°46.081 296.1 11.6 300 12.5
2009-06-15 06:58:47 51°16.192 2°46.059 296.9 11.6 300 12.5
2009-06-15 06:58:52 51°16.2 2°46.037 297.3 11.6 300 12.5
2009-06-15 06:58:57 51°16.208 2°46.014 296.4 11.6 298 12.4
2009-06-15 06:59:02 51°16.216 2°45.991 296 11.6 298 12.4
2009-06-15 06:59:06 51°16.222 2°45.973 295.8 11.6 298 12.2
2009-06-15 06:59:12 51°16.231 2°45.946 295.6 11.6 297 12.3
2009-06-15 06:59:17 51°16.238 2°45.923 295.2 11.7 296 12.4
2009-06-15 06:59:22 51°16.245 2°45.899 294.5 11.7 296 12.3
2009-06-15 06:59:27 51°16.252 2°45.876 294.7 11.7 297 12
2009-06-15 06:59:32 51°16.26 2°45.853 295.6 11.7 298 11.9
2009-06-15 06:59:37 51°16.267 2°45.83 295.2 11.7 295 11.9
2009-06-15 06:59:42 51°16.274 2°45.806 294.8 11.8 297 11.8
2009-06-15 06:59:47 51°16.281 2°45.783 294.8 11.8 295 11.9
2009-06-15 06:59:52 51°16.289 2°45.759 295.7 11.9 298 12
2009-06-15 06:59:57 51°16.296 2°45.736 296.1 11.9 297 12
2009-06-15 07:00:02 51°16.304 2°45.713 296 11.8 298 11.8
2009-06-15 07:00:07 51°16.311 2°45.689 295 11.8 296 12
2009-06-15 07:00:12 51°16.319 2°45.666 294.8 11.9 298 11.9
2009-06-15 07:00:17 51°16.326 2°45.642 294.9 11.9 296 12
2009-06-15 07:00:22 51°16.333 2°45.618 295.2 12 298 12.3
2009-06-15 07:00:26 51°16.34 2°45.6 295.9 11.8 297 12.3
2009-06-15 07:00:32 51°16.349 2°45.573 297 11.8 301 12.4
2009-06-15 07:00:37 51°16.359 2°45.552 301.3 11.9 306 12.6
2009-06-15 07:00:42 51°16.368 2°45.53 303.3 11.9 305 12.5
2009-06-15 07:00:47 51°16.379 2°45.51 306.3 12 310 12.3
2009-06-15 07:00:52 51°16.39 2°45.489 308.3 12 310 12.5
2009-06-15 07:00:57 51°16.401 2°45.47 310 12 313 12.5
2009-06-15 07:01:02 51°16.412 2°45.45 311 12 313 12.6
2009-06-15 07:01:07 51°16.424 2°45.431 312.5 12.1 315 12.8
2009-06-15 07:01:12 51°16.436 2°45.412 313.7 12.1 315 12.9
2009-06-15 07:01:17 51°16.448 2°45.393 313.8 12.2 315 12.9
2009-06-15 07:01:22 51°16.46 2°45.375 314.5 12.1 317 12.8
2009-06-15 07:01:27 51°16.473 2°45.357 316.3 12.2 318 12.7
2009-06-15 07:01:31 51°16.483 2°45.342 316.5 12.2 317 12.7
2009-06-15 07:01:37 51°16.498 2°45.321 317.4 12.2 319 13.1
2009-06-15 07:01:42 51°16.511 2°45.303 317.9 12.3 319 13.3
2009-06-15 07:01:47 51°16.524 2°45.286 318.7 12.2 320 13.2
2009-06-15 07:01:52 51°16.536 2°45.267 317.3 12.2 316 13.5
2009-06-15 07:01:57 51°16.548 2°45.249 315.5 12.2 318 13.5
2009-06-15 07:02:02 51°16.56 2°45.23 315 12.1 315 13.4
2009-06-15 07:02:07 51°16.572 2°45.211 314.1 12.1 315 13.3
2009-06-15 07:02:12 51°16.584 2°45.192 313.8 12.1 315 12.6
2009-06-15 07:02:17 51°16.595 2°45.172 312.9 12.1 313 11.9
2009-06-15 07:02:22 51°16.607 2°45.153 311.8 12.1 313 11.8
2009-06-15 07:02:27 51°16.618 2°45.134 312.2 12 314 12.1
2009-06-15 07:02:32 51°16.629 2°45.114 311.8 12 312 12
2009-06-15 07:02:37 51°16.64 2°45.094 310.8 12 313 12.1
2009-06-15 07:02:42 51°16.652 2°45.075 310.7 12 312 11.8
2009-06-15 07:02:47 51°16.663 2°45.055 310.2 12.1 312 12.1
2009-06-15 07:02:52 51°16.674 2°45.035 310.5 12.1 313 11.8
2009-06-15 07:02:57 51°16.685 2°45.015 310.8 12 312 11.7
2009-06-15 07:03:02 51°16.696 2°44.996 310.7 12.1 313 11.8
2009-06-15 07:03:07 51°16.708 2°44.976 311.4 12 312 12
2009-06-15 07:03:12 51°16.719 2°44.957 311 12 312 11.9
2009-06-15 07:03:17 51°16.73 2°44.937 311.2 12 312 11.9
2009-06-15 07:03:22 51°16.741 2°44.917 311.1 12.1 312 11.8
2009-06-15 07:03:26 51°16.75 2°44.901 311.3 12 312 11.9
2009-06-15 07:03:32 51°16.763 2°44.878 311 12 312 11.9
2009-06-15 07:03:37 51°16.775 2°44.858 310.7 12.1 311 11.9
2009-06-15 07:03:42 51°16.785 2°44.838 309.5 12 310 12.1
2009-06-15 07:03:47 51°16.796 2°44.817 309.1 11.9 311 12.6
2009-06-15 07:03:52 51°16.806 2°44.797 308.3 12 308 13.2
2009-06-15 07:03:57 51°16.817 2°44.776 307.4 12 308 13.8
2009-06-15 07:04:02 51°16.827 2°44.755 307 12 307 14.3
2009-06-15 07:04:07 51°16.837 2°44.734 306.5 12 308 14.5
2009-06-15 07:04:12 51°16.847 2°44.713 306.6 12 308 14.6
2009-06-15 07:04:17 51°16.857 2°44.692 307 12 308 14.9
2009-06-15 07:04:22 51°16.867 2°44.671 306.4 12 307 15
2009-06-15 07:04:27 51°16.878 2°44.65 306 12 307 15.1
2009-06-15 07:04:32 51°16.887 2°44.629 305.4 12 307 15.4
2009-06-15 07:04:37 51°16.898 2°44.608 306 12 308 15.6
2009-06-15 07:04:42 51°16.908 2°44.587 306.7 12 308 16
2009-06-15 07:04:47 51°16.918 2°44.566 306.6 12 308 16.3
2009-06-15 07:04:52 51°16.928 2°44.545 306.8 11.9 308 16.5
2009-06-15 07:04:57 51°16.938 2°44.525 307.2 12 308 16.6
2009-06-15 07:05:02 51°16.949 2°44.504 307.3 12 308 16.7
2009-06-15 07:05:07 51°16.959 2°44.483 307.1 12 308 16.7
2009-06-15 07:05:12 51°16.969 2°44.462 306.8 12 308 16.9
2009-06-15 07:05:17 51°16.979 2°44.441 306.7 12 307 16.9
2009-06-15 07:05:22 51°16.989 2°44.42 306.8 12 309 16.9
2009-06-15 07:05:26 51°16.998 2°44.403 307 11.9 308 17
2009-06-15 07:05:32 51°17.01 2°44.378 306.7 11.9 307 17.2
2009-06-15 07:05:37 51°17.019 2°44.357 305.8 12 306 17.4
2009-06-15 07:05:42 51°17.029 2°44.336 305.6 12 307 17.4
2009-06-15 07:05:47 51°17.038 2°44.314 304.9 11.9 304 17.3
2009-06-15 07:05:52 51°17.048 2°44.293 304.2 11.9 305 17.4
2009-06-15 07:05:57 51°17.057 2°44.271 303.8 11.8 304 17.2
2009-06-15 07:06:02 51°17.066 2°44.249 303 11.8 304 17.2
2009-06-15 07:06:06 51°17.073 2°44.232 302.7 11.8 303 17.1
2009-06-15 07:06:12 51°17.084 2°44.206 302.7 11.8 304 17.1
2009-06-15 07:06:17 51°17.093 2°44.184 302.4 11.8 303 17.2
2009-06-15 07:06:22 51°17.103 2°44.162 302.5 11.8 304 16.9
2009-06-15 07:06:27 51°17.111 2°44.14 301.7 11.9 302 16.9
2009-06-15 07:06:32 51°17.12 2°44.117 301.3 11.9 302 16.8
2009-06-15 07:06:37 51°17.129 2°44.096 301.5 11.9 303 16.7
2009-06-15 07:06:42 51°17.137 2°44.073 301.6 11.9 301 16.8
2009-06-15 07:06:47 51°17.146 2°44.051 301.3 11.9 303 16.8
2009-06-15 07:06:52 51°17.155 2°44.029 302 11.9 303 16.9
2009-06-15 07:06:57 51°17.164 2°44.006 302 11.9 303 17
2009-06-15 07:07:02 51°17.173 2°43.984 302 11.9 302 16.8
2009-06-15 07:07:07 51°17.182 2°43.962 302.1 11.9 303 17
2009-06-15 07:07:12 51°17.191 2°43.94 302.3 11.8 303 17
2009-06-15 07:07:17 51°17.199 2°43.918 301.3 11.8 301 17
2009-06-15 07:07:22 51°17.208 2°43.896 301.2 11.9 302 17.1
2009-06-15 07:07:27 51°17.217 2°43.873 301.3 11.9 303 16.6
2009-06-15 07:07:32 51°17.226 2°43.851 302.2 11.9 303 16.3
2009-06-15 07:07:37 51°17.234 2°43.829 302 11.9 302 16.2
2009-06-15 07:07:42 51°17.244 2°43.807 302 11.9 303 16.1
2009-06-15 07:07:46 51°17.251 2°43.789 302.6 12 303 16.2
2009-06-15 07:07:52 51°17.262 2°43.762 303 12 304 16.4
2009-06-15 07:07:57 51°17.271 2°43.74 302.7 12 303 16.3
2009-06-15 07:08:02 51°17.28 2°43.718 302.7 12 303 16.5
2009-06-15 07:08:07 51°17.289 2°43.695 302.3 12 303 16.8
2009-06-15 07:08:12 51°17.298 2°43.673 302.4 12 302 16.7
2009-06-15 07:08:17 51°17.307 2°43.651 302.2 11.9 303 16.8
2009-06-15 07:08:22 51°17.316 2°43.629 302.7 11.9 304 16.4
2009-06-15 07:08:27 51°17.325 2°43.607 302.9 11.9 303 16.4
2009-06-15 07:08:32 51°17.334 2°43.584 302.4 11.9 303 16.5
2009-06-15 07:08:37 51°17.343 2°43.562 302 11.9 302 16.7
2009-06-15 07:08:42 51°17.352 2°43.54 302.3 11.9 303 16.5
2009-06-15 07:08:47 51°17.36 2°43.517 302.4 11.9 302 16.3
2009-06-15 07:08:52 51°17.369 2°43.495 302.2 11.9 303 16
2009-06-15 07:08:57 51°17.378 2°43.473 302.4 12 303 15.5
2009-06-15 07:09:02 51°17.387 2°43.451 302.9 11.9 302 14.9
2009-06-15 07:09:07 51°17.396 2°43.428 302.1 12 302 14.9
2009-06-15 07:09:12 51°17.405 2°43.406 302.2 11.9 303 14.5
2009-06-15 07:09:17 51°17.414 2°43.384 302.7 11.9 302 13.6
2009-06-15 07:09:22 51°17.422 2°43.362 301.7 11.9 301 13
2009-06-15 07:09:27 51°17.431 2°43.339 301.5 11.9 302 12.4
2009-06-15 07:09:32 51°17.44 2°43.317 302 11.8 303 11.1
2009-06-15 07:09:37 51°17.449 2°43.295 302.4 11.8 303 13.4
2009-06-15 07:09:42 51°17.458 2°43.273 302.4 11.9 303 13.2
2009-06-15 07:09:47 51°17.466 2°43.251 301.4 11.9 301 12.9
2009-06-15 07:09:52 51°17.475 2°43.229 301 11.9 302 13.1
2009-06-15 07:09:57 51°17.483 2°43.206 300.7 11.9 301 12.4
2009-06-15 07:10:02 51°17.492 2°43.184 300.8 11.8 302 11.4
2009-06-15 07:10:07 51°17.5 2°43.161 300.7 11.8 301 12.6
2009-06-15 07:10:12 51°17.509 2°43.139 299.8 11.8 300 12.9
2009-06-15 07:10:17 51°17.517 2°43.116 300 11.9 302 12.1
2009-06-15 07:10:22 51°17.526 2°43.094 300.5 11.8 302 12.6
2009-06-15 07:10:26 51°17.533 2°43.076 300.6 11.8 302 12.7
2009-06-15 07:10:32 51°17.543 2°43.049 300.3 11.8 301 12.9
2009-06-15 07:10:37 51°17.552 2°43.027 300.4 11.9 302 12.1
2009-06-15 07:10:42 51°17.56 2°43.005 300.5 11.9 302 12.4
2009-06-15 07:10:47 51°17.569 2°42.983 300.9 11.9 303 13
2009-06-15 07:10:52 51°17.578 2°42.961 301.3 11.8 303 13.6
2009-06-15 07:10:57 51°17.587 2°42.939 301.2 11.9 303 14.2
2009-06-15 07:11:02 51°17.597 2°42.917 301 11.9 304 14.8
2009-06-15 07:11:07 51°17.605 2°42.895 301.2 11.9 303 15.6
2009-06-15 07:11:12 51°17.615 2°42.873 301.3 11.9 304 16.8
2009-06-15 07:11:17 51°17.624 2°42.851 301.3 12 304 18.1
2009-06-15 07:11:22 51°17.633 2°42.829 301.8 12 304 19.6
2009-06-15 07:11:27 51°17.642 2°42.807 301.7 12 303 21.1
2009-06-15 07:11:32 51°17.652 2°42.785 301.5 12 304 21.5
2009-06-15 07:11:37 51°17.661 2°42.763 301.2 11.9 303 22
2009-06-15 07:11:42 51°17.67 2°42.741 301.3 12 304 22.5
2009-06-15 07:11:47 51°17.679 2°42.719 301.3 12 304 22.8
2009-06-15 07:11:52 51°17.688 2°42.697 301.6 12.1 304 23.1
2009-06-15 07:11:57 51°17.698 2°42.675 301.9 12.1 305 23.4
2009-06-15 07:12:02 51°17.707 2°42.653 302 12.1 304 23.5
2009-06-15 07:12:07 51°17.717 2°42.631 301.6 12.1 305 23.6
2009-06-15 07:12:12 51°17.727 2°42.609 302.1 12.2 305 23.9
2009-06-15 07:12:17 51°17.737 2°42.587 302.5 12.2 306 24
2009-06-15 07:12:22 51°17.747 2°42.565 303.3 12.2 306 24.1
2009-06-15 07:12:26 51°17.755 2°42.547 303.5 12.2 306 24.2
2009-06-15 07:12:32 51°17.767 2°42.521 303.5 12.2 306 24.2
2009-06-15 07:12:37 51°17.777 2°42.499 303.5 12.2 306 24.2
2009-06-15 07:12:42 51°17.787 2°42.477 303.6 12.2 307 24.4
2009-06-15 07:12:47 51°17.796 2°42.455 303.2 12.2 305 24.5
2009-06-15 07:12:52 51°17.806 2°42.433 302.7 12.1 305 24.7
2009-06-15 07:12:57 51°17.816 2°42.411 302.6 12 304 24.8
2009-06-15 07:13:02 51°17.825 2°42.389 302.1 12 304 24.7
2009-06-15 07:13:07 51°17.834 2°42.367 302.7 12 304 25.3
2009-06-15 07:13:12 51°17.844 2°42.346 303.4 12 306 25
2009-06-15 07:13:17 51°17.854 2°42.324 303.2 12 304 25.1
2009-06-15 07:13:22 51°17.863 2°42.302 302.9 12 305 25.3
2009-06-15 07:13:27 51°17.872 2°42.28 302.3 12 304 25.4
2009-06-15 07:13:32 51°17.881 2°42.258 301.4 11.9 303 25.4
2009-06-15 07:13:37 51°17.89 2°42.236 301.9 11.9 303 25.6
2009-06-15 07:13:42 51°17.899 2°42.214 301.6 11.9 303 25.5
2009-06-15 07:13:47 51°17.908 2°42.192 301.3 11.9 303 25.5
2009-06-15 07:13:52 51°17.917 2°42.17 301.1 11.8 302 25.3
2009-06-15 07:13:57 51°17.926 2°42.148 301.2 11.8 303 25.3
2009-06-15 07:14:02 51°17.934 2°42.126 301.3 11.8 303 25.3
2009-06-15 07:14:07 51°17.943 2°42.104 301.3 11.8 302 25.7
2009-06-15 07:14:12 51°17.952 2°42.082 301.3 11.8 303 25.6
2009-06-15 07:14:17 51°17.961 2°42.06 301.6 11.8 303 25.4
2009-06-15 07:14:22 51°17.97 2°42.038 301.6 11.8 303 25.5
2009-06-15 07:14:26 51°17.977 2°42.02 301.8 11.8 302 25.3
2009-06-15 07:14:32 51°17.987 2°41.994 301.6 11.8 303 25.3
2009-06-15 07:14:37 51°17.996 2°41.972 301.3 11.8 303 25.3
2009-06-15 07:14:42 51°18.005 2°41.95 302.3 11.8 304 25.3
2009-06-15 07:14:46 51°18.012 2°41.933 302.7 11.8 303 25.1
2009-06-15 07:14:52 51°18.024 2°41.907 303 11.8 305 25
2009-06-15 07:14:57 51°18.033 2°41.885 303.5 11.8 304 25.1
2009-06-15 07:15:02 51°18.042 2°41.864 303.8 11.9 305 25.1
2009-06-15 07:15:06 51°18.05 2°41.846 304.2 11.8 305 25
2009-06-15 07:15:12 51°18.061 2°41.82 304.1 11.9 304 24.9
2009-06-15 07:15:17 51°18.07 2°41.799 304.1 11.9 304 24.9
2009-06-15 07:15:22 51°18.079 2°41.777 303.7 11.9 304 24.7
2009-06-15 07:15:26 51°18.087 2°41.759 302.8 11.9 303 24.8
2009-06-15 07:15:32 51°18.098 2°41.733 302.7 11.9 304 24.7
2009-06-15 07:15:37 51°18.107 2°41.711 302.2 11.9 303 24.6
2009-06-15 07:15:42 51°18.115 2°41.689 302 11.9 303 23.9
2009-06-15 07:15:46 51°18.123 2°41.671 302 11.8 304 24
2009-06-15 07:15:52 51°18.134 2°41.645 302.2 11.8 304 24.1
2009-06-15 07:15:57 51°18.143 2°41.623 302.9 11.8 306 24.2
2009-06-15 07:16:02 51°18.153 2°41.602 304 11.8 305 24.2
2009-06-15 07:16:07 51°18.162 2°41.581 304.3 11.8 306 24.1
2009-06-15 07:16:12 51°18.172 2°41.56 305.6 11.9 307 23.8
2009-06-15 07:16:17 51°18.182 2°41.539 305.7 11.8 308 23.7
2009-06-15 07:16:22 51°18.192 2°41.519 306.6 11.9 309 23.9
2009-06-15 07:16:27 51°18.202 2°41.498 307.1 11.9 308 23.7
2009-06-15 07:16:32 51°18.213 2°41.477 307.7 11.9 309 23.6
2009-06-15 07:16:37 51°18.223 2°41.456 307.8 11.9 308 23.7
2009-06-15 07:16:42 51°18.234 2°41.437 308.7 11.9 312 23.4
2009-06-15 07:16:47 51°18.245 2°41.417 309.5 11.9 311 23.2
2009-06-15 07:16:52 51°18.255 2°41.397 310.1 11.9 311 23
2009-06-15 07:16:57 51°18.267 2°41.377 311.7 12 313 21.3
2009-06-15 07:17:02 51°18.278 2°41.358 312 12 312 20.7
2009-06-15 07:17:07 51°18.29 2°41.339 312.5 12 314 20.7
2009-06-15 07:17:12 51°18.301 2°41.32 313.2 11.9 313 21.6
2009-06-15 07:17:17 51°18.313 2°41.301 312.9 12 314 21.7
2009-06-15 07:17:22 51°18.324 2°41.282 313.6 12 315 21.6
2009-06-15 07:17:27 51°18.336 2°41.263 314.1 11.9 315 21.5
2009-06-15 07:17:32 51°18.348 2°41.244 314.4 11.9 315 21.5
2009-06-15 07:17:37 51°18.36 2°41.226 314.3 11.9 315 20.4
2009-06-15 07:17:42 51°18.371 2°41.207 314.1 11.9 315 20.4
2009-06-15 07:17:47 51°18.383 2°41.188 313.7 12 315 20.8
2009-06-15 07:17:52 51°18.395 2°41.17 314.4 12 316 20.2
2009-06-15 07:17:57 51°18.407 2°41.151 315 11.9 316 18.4
2009-06-15 07:18:02 51°18.419 2°41.133 314.8 11.9 315 18
2009-06-15 07:18:07 51°18.431 2°41.114 314.5 11.9 316 19.2
2009-06-15 07:18:12 51°18.442 2°41.095 314.5 11.9 315 19.3
2009-06-15 07:18:17 51°18.454 2°41.077 314 11.9 314 19.5
2009-06-15 07:18:22 51°18.465 2°41.058 313.2 11.9 314 18.6
2009-06-15 07:18:27 51°18.477 2°41.039 313.3 11.9 315 17.8
2009-06-15 07:18:32 51°18.488 2°41.02 313.1 11.9 314 17
2009-06-15 07:18:37 51°18.5 2°41.001 313.2 11.9 314 16.1
2009-06-15 07:18:42 51°18.511 2°40.982 312.8 11.8 313 13.9
2009-06-15 07:18:47 51°18.523 2°40.963 313 11.8 315 16.4
2009-06-15 07:18:52 51°18.534 2°40.945 313.8 11.8 314 17.1
2009-06-15 07:18:57 51°18.545 2°40.925 312.1 11.8 312 17.4
2009-06-15 07:19:02 51°18.556 2°40.906 311.9 11.8 314 16.5
2009-06-15 07:19:06 51°18.565 2°40.89 312.3 11.8 312 12.7
2009-06-15 07:19:12 51°18.578 2°40.867 311.5 11.8 312 16.2
2009-06-15 07:19:17 51°18.589 2°40.848 311 11.9 312 17.9
2009-06-15 07:19:22 51°18.6 2°40.828 311 11.9 311 19.4
2009-06-15 07:19:27 51°18.611 2°40.808 310.5 11.9 310 20.7
2009-06-15 07:19:32 51°18.622 2°40.788 310.5 12 312 21.3
2009-06-15 07:19:37 51°18.633 2°40.769 311.8 12 313 20.9
2009-06-15 07:19:42 51°18.644 2°40.749 311.7 11.9 312 18.5
2009-06-15 07:19:46 51°18.653 2°40.734 311.5 11.9 314 16.4
2009-06-15 07:19:52 51°18.667 2°40.71 311.4 11.9 312 17.9
2009-06-15 07:19:57 51°18.678 2°40.691 311.2 11.9 313 19.1
2009-06-15 07:20:02 51°18.689 2°40.671 310.6 11.9 312 19.7
2009-06-15 07:20:06 51°18.698 2°40.656 310.7 11.9 313 19.5
2009-06-15 07:20:12 51°18.711 2°40.632 310.6 11.8 311 19
2009-06-15 07:20:17 51°18.722 2°40.613 309.5 11.8 312 18.3
2009-06-15 07:20:22 51°18.733 2°40.593 310 11.8 312 17.2
2009-06-15 07:20:26 51°18.741 2°40.578 309.9 11.7 312 15
2009-06-15 07:20:32 51°18.755 2°40.556 310.1 11.7 314 11.6
2009-06-15 07:20:37 51°18.766 2°40.537 310.8 11.7 313 14.9
2009-06-15 07:20:42 51°18.777 2°40.517 310 11.7 311 17.7
2009-06-15 07:20:47 51°18.788 2°40.498 309.1 11.8 311 19.3
2009-06-15 07:20:52 51°18.798 2°40.478 308.6 11.8 311 19.7
2009-06-15 07:20:57 51°18.809 2°40.458 308.4 11.9 310 20
2009-06-15 07:21:02 51°18.819 2°40.438 307.8 11.8 308 20.6
2009-06-15 07:21:07 51°18.829 2°40.417 307 11.9 309 21.2
2009-06-15 07:21:12 51°18.839 2°40.397 306.2 11.8 309 21.6
2009-06-15 07:21:17 51°18.85 2°40.377 307 11.9 310 22.2
2009-06-15 07:21:22 51°18.86 2°40.356 306.5 11.9 308 22.8
2009-06-15 07:21:26 51°18.869 2°40.34 305.8 11.9 310 22.2
2009-06-15 07:21:32 51°18.881 2°40.315 306.2 11.9 308 22.5
2009-06-15 07:21:37 51°18.891 2°40.295 305.7 11.9 308 23.4
2009-06-15 07:21:42 51°18.902 2°40.274 305.7 11.9 309 23.3
2009-06-15 07:21:46 51°18.91 2°40.258 305.2 11.9 307 22.9
2009-06-15 07:21:52 51°18.921 2°40.232 303.8 11.9 307 23.2
2009-06-15 07:21:57 51°18.931 2°40.211 303.5 11.9 306 23.7
2009-06-15 07:22:02 51°18.941 2°40.188 302.1 11.9 304 23.1
2009-06-15 07:22:07 51°18.95 2°40.167 300.6 11.9 304 23.1
2009-06-15 07:22:12 51°18.959 2°40.145 300.5 12 304 22.8
2009-06-15 07:22:17 51°18.967 2°40.122 299.3 11.9 303 23.1
2009-06-15 07:22:22 51°18.977 2°40.1 299.5 12 304 23.7
2009-06-15 07:22:27 51°18.985 2°40.077 299.7 12 301 24
2009-06-15 07:22:32 51°18.995 2°40.055 298.9 12 302 24.1
2009-06-15 07:22:37 51°19.003 2°40.033 299.1 11.9 302 23.9
2009-06-15 07:22:42 51°19.012 2°40.01 298.9 11.9 302 23.6
2009-06-15 07:22:47 51°19.021 2°39.988 298.8 11.9 301 23.9
2009-06-15 07:22:52 51°19.029 2°39.965 297.9 11.9 301 24.1
2009-06-15 07:22:57 51°19.037 2°39.942 296.6 11.9 299 24
2009-06-15 07:23:02 51°19.045 2°39.919 295.9 11.9 299 24.3
2009-06-15 07:23:07 51°19.053 2°39.896 295.1 11.9 298 24.5
2009-06-15 07:23:12 51°19.061 2°39.872 295.1 12 299 24.5
2009-06-15 07:23:17 51°19.068 2°39.849 295 12 298 24.5
2009-06-15 07:23:22 51°19.076 2°39.826 294.8 12 298 24.8
2009-06-15 07:23:27 51°19.084 2°39.802 294.8 12 298 25.1
2009-06-15 07:23:32 51°19.092 2°39.779 295.6 12 299 25.4
2009-06-15 07:23:37 51°19.1 2°39.756 295.6 12 298 25.2
2009-06-15 07:23:42 51°19.108 2°39.732 295 12 298 25.4
2009-06-15 07:23:47 51°19.116 2°39.709 295.2 12 299 25.8
2009-06-15 07:23:52 51°19.124 2°39.686 295.3 12 299 26.2
2009-06-15 07:23:57 51°19.132 2°39.662 295.5 12 298 26.3
2009-06-15 07:24:02 51°19.14 2°39.639 295 12 298 26.6
2009-06-15 07:24:07 51°19.148 2°39.616 296 12.1 301 26.8
2009-06-15 07:24:12 51°19.156 2°39.593 296.5 12 298 27
2009-06-15 07:24:17 51°19.164 2°39.569 295.7 12 298 27.3
2009-06-15 07:24:22 51°19.172 2°39.546 295.2 12.1 298 27.4
2009-06-15 07:24:27 51°19.18 2°39.522 295.5 12 298 27.6
2009-06-15 07:24:32 51°19.188 2°39.499 295.2 12 298 28
2009-06-15 07:24:37 51°19.196 2°39.476 295.6 12.1 299 28.2
2009-06-15 07:24:42 51°19.204 2°39.452 295.8 12.1 299 28.5
2009-06-15 07:24:47 51°19.213 2°39.429 296.9 12.1 301 28.7
2009-06-15 07:24:52 51°19.221 2°39.406 296.9 12.1 299 29
2009-06-15 07:24:57 51°19.229 2°39.383 296.8 12.1 300 29.3
2009-06-15 07:25:02 51°19.237 2°39.36 297.3 12 300 29.3
2009-06-15 07:25:07 51°19.245 2°39.337 296.4 12 300 29.4
2009-06-15 07:25:12 51°19.254 2°39.314 297.5 12.1 300 29.5
2009-06-15 07:25:17 51°19.262 2°39.291 297.7 12 300 29.7
2009-06-15 07:25:22 51°19.27 2°39.267 297.4 12.1 300 29.9
2009-06-15 07:25:27 51°19.279 2°39.244 297.6 12.1 300 29.8
2009-06-15 07:25:32 51°19.287 2°39.221 297.5 12.1 300 29.9
2009-06-15 07:25:37 51°19.295 2°39.198 297.4 12.1 299 30.2
2009-06-15 07:25:42 51°19.304 2°39.175 297.7 12.1 302 30.1
2009-06-15 07:25:47 51°19.313 2°39.152 298.8 12.1 300 30.1
2009-06-15 07:25:52 51°19.321 2°39.129 298.8 12.1 300 30
2009-06-15 07:25:57 51°19.33 2°39.105 298.5 12.1 300 30.2
2009-06-15 07:26:02 51°19.338 2°39.082 298.5 12.1 301 29.8
2009-06-15 07:26:06 51°19.345 2°39.064 299.1 12.2 301 29.8
2009-06-15 07:26:12 51°19.356 2°39.036 299.6 12.2 302 29.8
2009-06-15 07:26:17 51°19.364 2°39.013 299.8 12.2 301 29.7
2009-06-15 07:26:22 51°19.373 2°38.99 299.5 12.2 301 29.6
2009-06-15 07:26:27 51°19.382 2°38.967 299.4 12.2 301 29.3
2009-06-15 07:26:32 51°19.39 2°38.944 299 12.1 299 29.5
2009-06-15 07:26:37 51°19.398 2°38.92 298.1 12.1 300 29.4
2009-06-15 07:26:42 51°19.407 2°38.897 298.2 12.1 299 29.1
2009-06-15 07:26:47 51°19.415 2°38.874 297.8 12.1 299 29
2009-06-15 07:26:52 51°19.423 2°38.85 297.7 12.1 299 28.5
2009-06-15 07:26:57 51°19.431 2°38.827 298.1 12.1 300 28.5
2009-06-15 07:27:02 51°19.44 2°38.804 298.9 12.1 300 28.5
2009-06-15 07:27:07 51°19.448 2°38.78 298.4 12.1 298 27.9
2009-06-15 07:27:12 51°19.456 2°38.757 297.7 12.1 300 27.9
2009-06-15 07:27:17 51°19.464 2°38.733 297.9 12.1 298 27.8
2009-06-15 07:27:22 51°19.472 2°38.709 297.5 12.1 298 27.7
2009-06-15 07:27:26 51°19.478 2°38.69 297.2 12.2 298 27.2
2009-06-15 07:27:32 51°19.488 2°38.662 297.3 12.2 299 26.7
2009-06-15 07:27:37 51°19.497 2°38.638 298.4 12.2 299 26.6
2009-06-15 07:27:42 51°19.505 2°38.615 298.6 12.2 300 26.1
2009-06-15 07:27:46 51°19.512 2°38.596 298.9 12.3 301 26.3
2009-06-15 07:27:52 51°19.522 2°38.568 299.5 12.3 300 25.9
2009-06-15 07:27:57 51°19.531 2°38.544 299.4 12.3 300 25.6
2009-06-15 07:28:02 51°19.54 2°38.521 299.5 12.3 300 25
2009-06-15 07:28:07 51°19.548 2°38.497 298.8 12.3 300 24.9
2009-06-15 07:28:12 51°19.556 2°38.473 298.4 12.3 300 25
2009-06-15 07:28:17 51°19.564 2°38.449 298.1 12.3 298 25
2009-06-15 07:28:22 51°19.573 2°38.425 297.4 12.3 299 24.9
2009-06-15 07:28:27 51°19.581 2°38.401 297.1 12.3 298 24.4
2009-06-15 07:28:32 51°19.589 2°38.377 296.7 12.3 298 24.2
2009-06-15 07:28:37 51°19.597 2°38.353 296.5 12.3 298 23.1
2009-06-15 07:28:42 51°19.605 2°38.329 296.9 12.3 299 23.3
2009-06-15 07:28:47 51°19.613 2°38.305 297.8 12.3 298 24.1
2009-06-15 07:28:52 51°19.621 2°38.281 297.7 12.3 299 24.1
2009-06-15 07:28:57 51°19.63 2°38.257 298.2 12.3 298 23.6
2009-06-15 07:29:02 51°19.638 2°38.233 297.5 12.3 298 23.8
2009-06-15 07:29:07 51°19.646 2°38.209 297.5 12.3 299 24
2009-06-15 07:29:12 51°19.655 2°38.185 297.8 12.3 299 23.8
2009-06-15 07:29:17 51°19.663 2°38.162 298 12.3 300 22.5
2009-06-15 07:29:22 51°19.671 2°38.138 298.2 12.3 299 23.3
2009-06-15 07:29:27 51°19.68 2°38.114 298.2 12.3 299 23.5
2009-06-15 07:29:32 51°19.688 2°38.09 298.2 12.4 299 23
2009-06-15 07:29:37 51°19.697 2°38.066 298.1 12.3 299 21.7
2009-06-15 07:29:42 51°19.705 2°38.042 298.3 12.4 299 23
2009-06-15 07:29:47 51°19.713 2°38.018 298.4 12.3 299 23.6
2009-06-15 07:29:52 51°19.721 2°37.993 297.6 12.3 297 23.9
2009-06-15 07:29:57 51°19.729 2°37.969 296.9 12.2 297 23.8
2009-06-15 07:30:02 51°19.737 2°37.945 296.6 12.2 296 22.1
2009-06-15 07:30:07 51°19.744 2°37.921 296.3 12.2 298 22.6
2009-06-15 07:30:12 51°19.752 2°37.897 296.5 12.2 296 23.2
2009-06-15 07:30:17 51°19.76 2°37.873 296.9 12.2 299 21.1
2009-06-15 07:30:22 51°19.768 2°37.85 297.7 12.2 298 22.4
2009-06-15 07:30:27 51°19.776 2°37.826 297.4 12.2 298 22.9
2009-06-15 07:30:32 51°19.784 2°37.802 297.6 12.2 298 23.4
2009-06-15 07:30:37 51°19.792 2°37.778 297.9 12.1 298 23.4
2009-06-15 07:30:42 51°19.8 2°37.755 297.9 12.1 299 23.7
2009-06-15 07:30:47 51°19.808 2°37.731 297.3 12.1 297 23.4
2009-06-15 07:30:52 51°19.815 2°37.707 296.5 12 298 23.5
2009-06-15 07:30:57 51°19.823 2°37.684 297.2 12 297 23.5
2009-06-15 07:31:02 51°19.831 2°37.661 296.9 11.7 297 23.6
2009-06-15 07:31:07 51°19.838 2°37.639 296.2 11.2 297 23.7
2009-06-15 07:31:12 51°19.844 2°37.618 295.8 10.7 297 23.6
2009-06-15 07:31:17 51°19.851 2°37.597 295.7 10.3 297 23.5
2009-06-15 07:31:22 51°19.857 2°37.578 295.8 10 298 23.4
2009-06-15 07:31:27 51°19.863 2°37.559 296 9.8 298 23.4
2009-06-15 07:31:32 51°19.87 2°37.54 296.1 9.6 297 23.2
2009-06-15 07:31:37 51°19.876 2°37.522 296.2 9.2 298 23.1
2009-06-15 07:31:42 51°19.881 2°37.505 296.4 8.7 298 23.3
2009-06-15 07:31:47 51°19.887 2°37.489 296.4 8.1 300 23.1
2009-06-15 07:31:52 51°19.892 2°37.475 296.8 7.5 299 22.8
2009-06-15 07:31:57 51°19.897 2°37.461 296.9 7 300 21.3
2009-06-15 07:32:02 51°19.902 2°37.448 296.9 6.8 300 22.3
2009-06-15 07:32:07 51°19.906 2°37.436 296.6 6.4 300 22.5
2009-06-15 07:32:12 51°19.91 2°37.424 296.5 6.1 299 22.8
2009-06-15 07:32:17 51°19.914 2°37.412 295.9 5.8 299 23.3
2009-06-15 07:32:22 51°19.918 2°37.401 294.8 5.6 298 23.2
2009-06-15 07:32:27 51°19.921 2°37.391 293.7 5.4 298 23.1
2009-06-15 07:32:32 51°19.924 2°37.381 292.6 5.2 297 22.7
2009-06-15 07:32:37 51°19.927 2°37.371 291.2 4.9 296 22.7
2009-06-15 07:32:42 51°19.93 2°37.361 289.7 4.8 293 22.3
2009-06-15 07:32:47 51°19.932 2°37.352 288.2 4.6 292 21.7
2009-06-15 07:32:52 51°19.935 2°37.343 286.5 4.4 292 21.1
2009-06-15 07:32:57 51°19.937 2°37.334 285.3 4.2 290 22.2
2009-06-15 07:33:02 51°19.938 2°37.326 284 4.1 290 22.4
2009-06-15 07:33:07 51°19.94 2°37.317 283 4 289 22.9
2009-06-15 07:33:12 51°19.942 2°37.309 282.1 3.9 288 23.2
2009-06-15 07:33:17 51°19.944 2°37.301 281 3.8 288 23
2009-06-15 07:33:22 51°19.945 2°37.293 280.7 3.7 287 22.9
2009-06-15 07:33:27 51°19.947 2°37.286 280.2 3.6 287 23.2
2009-06-15 07:33:32 51°19.948 2°37.278 279.5 3.5 287 23.1
2009-06-15 07:33:37 51°19.949 2°37.271 279.2 3.5 286 23.3
2009-06-15 07:33:42 51°19.951 2°37.264 278.9 3.4 285 23.2
2009-06-15 07:33:47 51°19.952 2°37.257 278.7 3.4 285 23
2009-06-15 07:33:52 51°19.953 2°37.249 278.8 3.3 286 23.2
2009-06-15 07:33:57 51°19.955 2°37.242 278.9 3.3 287 23
2009-06-15 07:34:02 51°19.956 2°37.236 279.2 3.3 285 23.1
2009-06-15 07:34:07 51°19.957 2°37.229 279.6 3.2 287 23.2
2009-06-15 07:34:12 51°19.958 2°37.222 280.1 3.2 287 22.9
2009-06-15 07:34:17 51°19.96 2°37.215 280.5 3.2 287 22.8
2009-06-15 07:34:22 51°19.961 2°37.209 281 3.1 288 22.8
2009-06-15 07:34:27 51°19.962 2°37.202 281.5 3.1 289 22.7
2009-06-15 07:34:32 51°19.964 2°37.196 282.1 3.1 289 22.2
2009-06-15 07:34:37 51°19.965 2°37.189 282.6 3.2 289 22.2
2009-06-15 07:34:42 51°19.967 2°37.182 283.2 3.3 289 21.7
2009-06-15 07:34:47 51°19.968 2°37.175 283.7 3.4 290 21.4
2009-06-15 07:34:52 51°19.97 2°37.168 284.2 3.4 290 21.1
2009-06-15 07:34:57 51°19.972 2°37.161 284.7 3.6 291 20.6
2009-06-15 07:35:02 51°19.974 2°37.153 285.1 3.6 290 21.3
2009-06-15 07:35:07 51°19.976 2°37.146 285.3 3.7 292 22.2
2009-06-15 07:35:12 51°19.977 2°37.138 285.6 3.7 292 22.6
2009-06-15 07:35:17 51°19.979 2°37.13 285.8 3.8 292 22.9
2009-06-15 07:35:22 51°19.981 2°37.122 286 3.8 292 22.9
2009-06-15 07:35:27 51°19.983 2°37.115 286.1 3.8 292 23.2
2009-06-15 07:35:32 51°19.985 2°37.107 286.1 3.8 291 23.1
2009-06-15 07:35:37 51°19.987 2°37.099 285.8 3.8 292 22.8
2009-06-15 07:35:42 51°19.989 2°37.091 285.4 3.9 290 22.4
2009-06-15 07:35:47 51°19.991 2°37.083 285.4 3.8 291 21.9
2009-06-15 07:35:52 51°19.993 2°37.075 285.2 3.8 291 22.1
2009-06-15 07:35:57 51°19.994 2°37.067 285.1 3.7 290 22
2009-06-15 07:36:02 51°19.996 2°37.06 284.9 3.7 290 22.1
2009-06-15 07:36:07 51°19.998 2°37.052 284.7 3.7 290 21.7
2009-06-15 07:36:12 51°20 2°37.044 284.7 3.7 290 20.8
2009-06-15 07:36:17 51°20.001 2°37.037 284.6 3.6 290 21.5
2009-06-15 07:36:22 51°20.003 2°37.029 284.5 3.6 290 22
2009-06-15 07:36:27 51°20.005 2°37.022 284.4 3.6 290 22.3
2009-06-15 07:36:32 51°20.007 2°37.014 284.5 3.6 291 22.4
2009-06-15 07:36:37 51°20.009 2°37.007 284.6 3.6 291 22.6
2009-06-15 07:36:42 51°20.011 2°36.999 285.4 3.6 292 22.8
2009-06-15 07:36:47 51°20.013 2°36.992 286.6 3.5 295 22.8
2009-06-15 07:36:52 51°20.015 2°36.985 289 3.5 296 22.8
2009-06-15 07:36:57 51°20.017 2°36.978 292.3 3.5 301 22.9